sensor_id;sensor_type;location;lat;lon;timestamp;P1;durP1;ratioP1;P2;durP2;ratioP2
28766;SDS011;15921;52.034;20.650;2024-01-27T00:01:37;6.82;;;2.05;;
28766;SDS011;15921;52.034;20.650;2024-01-27T00:04:03;11.48;;;2.05;;
28766;SDS011;15921;52.034;20.650;2024-01-27T00:06:28;7.13;;;2.10;;
28766;SDS011;15921;52.034;20.650;2024-01-27T00:08:54;4.80;;;1.45;;
28766;SDS011;15921;52.034;20.650;2024-01-27T00:11:20;10.88;;;1.85;;
28766;SDS011;15921;52.034;20.650;2024-01-27T00:13:46;12.00;;;2.00;;
28766;SDS011;15921;52.034;20.650;2024-01-27T00:16:12;13.75;;;2.13;;
28766;SDS011;15921;52.034;20.650;2024-01-27T00:18:38;4.05;;;1.42;;
28766;SDS011;15921;52.034;20.650;2024-01-27T00:21:04;10.77;;;1.77;;
28766;SDS011;15921;52.034;20.650;2024-01-27T00:23:31;8.73;;;1.90;;
28766;SDS011;15921;52.034;20.650;2024-01-27T00:26:03;7.88;;;2.33;;
28766;SDS011;15921;52.034;20.650;2024-01-27T00:28:29;13.73;;;2.83;;
28766;SDS011;15921;52.034;20.650;2024-01-27T00:30:55;12.25;;;2.10;;
28766;SDS011;15921;52.034;20.650;2024-01-27T00:33:21;13.45;;;2.47;;
28766;SDS011;15921;52.034;20.650;2024-01-27T00:35:47;9.90;;;2.38;;
28766;SDS011;15921;52.034;20.650;2024-01-27T00:38:13;14.13;;;3.30;;
28766;SDS011;15921;52.034;20.650;2024-01-27T00:40:38;12.07;;;2.30;;
28766;SDS011;15921;52.034;20.650;2024-01-27T00:43:04;11.73;;;2.60;;
28766;SDS011;15921;52.034;20.650;2024-01-27T00:45:30;9.95;;;1.85;;
28766;SDS011;15921;52.034;20.650;2024-01-27T00:47:57;7.97;;;1.98;;
28766;SDS011;15921;52.034;20.650;2024-01-27T00:50:22;13.07;;;2.20;;
28766;SDS011;15921;52.034;20.650;2024-01-27T00:52:48;10.57;;;2.08;;
28766;SDS011;15921;52.034;20.650;2024-01-27T00:55:14;11.90;;;2.28;;
28766;SDS011;15921;52.034;20.650;2024-01-27T00:57:40;15.38;;;2.80;;
28766;SDS011;15921;52.034;20.650;2024-01-27T01:00:06;10.60;;;2.00;;
28766;SDS011;15921;52.034;20.650;2024-01-27T01:02:33;17.65;;;2.63;;
28766;SDS011;15921;52.034;20.650;2024-01-27T01:04:59;14.52;;;1.80;;
28766;SDS011;15921;52.034;20.650;2024-01-27T01:07:25;21.05;;;2.97;;
28766;SDS011;15921;52.034;20.650;2024-01-27T01:09:51;13.95;;;2.30;;
28766;SDS011;15921;52.034;20.650;2024-01-27T01:12:17;17.00;;;2.50;;
28766;SDS011;15921;52.034;20.650;2024-01-27T01:14:43;17.55;;;2.17;;
28766;SDS011;15921;52.034;20.650;2024-01-27T01:17:09;12.18;;;2.45;;
28766;SDS011;15921;52.034;20.650;2024-01-27T01:19:38;14.95;;;2.20;;
28766;SDS011;15921;52.034;20.650;2024-01-27T01:22:04;9.48;;;2.25;;
28766;SDS011;15921;52.034;20.650;2024-01-27T01:24:30;11.70;;;3.25;;
28766;SDS011;15921;52.034;20.650;2024-01-27T01:26:56;18.08;;;2.75;;
28766;SDS011;15921;52.034;20.650;2024-01-27T01:29:22;16.05;;;3.10;;
28766;SDS011;15921;52.034;20.650;2024-01-27T01:31:48;15.57;;;2.45;;
28766;SDS011;15921;52.034;20.650;2024-01-27T01:34:14;10.77;;;1.98;;
28766;SDS011;15921;52.034;20.650;2024-01-27T01:36:40;25.02;;;2.40;;
28766;SDS011;15921;52.034;20.650;2024-01-27T01:39:06;11.77;;;2.30;;
28766;SDS011;15921;52.034;20.650;2024-01-27T01:41:32;20.00;;;3.85;;
28766;SDS011;15921;52.034;20.650;2024-01-27T01:43:57;23.98;;;3.53;;
28766;SDS011;15921;52.034;20.650;2024-01-27T01:46:24;16.13;;;2.95;;
28766;SDS011;15921;52.034;20.650;2024-01-27T01:48:50;13.88;;;2.72;;
28766;SDS011;15921;52.034;20.650;2024-01-27T01:51:16;14.25;;;3.42;;
28766;SDS011;15921;52.034;20.650;2024-01-27T01:53:42;10.98;;;2.63;;
28766;SDS011;15921;52.034;20.650;2024-01-27T01:56:10;19.27;;;2.88;;
28766;SDS011;15921;52.034;20.650;2024-01-27T01:58:38;17.75;;;2.85;;
28766;SDS011;15921;52.034;20.650;2024-01-27T02:01:04;15.10;;;3.13;;
28766;SDS011;15921;52.034;20.650;2024-01-27T02:03:30;21.40;;;3.90;;
28766;SDS011;15921;52.034;20.650;2024-01-27T02:05:55;16.42;;;3.13;;
28766;SDS011;15921;52.034;20.650;2024-01-27T02:08:21;21.40;;;2.47;;
28766;SDS011;15921;52.034;20.650;2024-01-27T02:10:47;14.50;;;2.50;;
28766;SDS011;15921;52.034;20.650;2024-01-27T02:13:19;18.13;;;3.05;;
28766;SDS011;15921;52.034;20.650;2024-01-27T02:15:46;20.33;;;2.67;;
28766;SDS011;15921;52.034;20.650;2024-01-27T02:18:13;23.92;;;5.65;;
28766;SDS011;15921;52.034;20.650;2024-01-27T02:20:39;17.05;;;2.47;;
28766;SDS011;15921;52.034;20.650;2024-01-27T02:23:05;24.85;;;3.30;;
28766;SDS011;15921;52.034;20.650;2024-01-27T02:25:31;15.77;;;3.30;;
28766;SDS011;15921;52.034;20.650;2024-01-27T02:28:00;18.98;;;3.50;;
28766;SDS011;15921;52.034;20.650;2024-01-27T02:30:28;21.23;;;3.42;;
28766;SDS011;15921;52.034;20.650;2024-01-27T02:32:55;18.90;;;2.92;;
28766;SDS011;15921;52.034;20.650;2024-01-27T02:35:22;20.05;;;3.53;;
28766;SDS011;15921;52.034;20.650;2024-01-27T02:37:48;20.95;;;3.53;;
28766;SDS011;15921;52.034;20.650;2024-01-27T02:40:13;26.88;;;3.17;;
28766;SDS011;15921;52.034;20.650;2024-01-27T02:42:39;23.90;;;3.80;;
28766;SDS011;15921;52.034;20.650;2024-01-27T02:45:07;21.13;;;3.25;;
28766;SDS011;15921;52.034;20.650;2024-01-27T02:47:33;21.30;;;3.22;;
28766;SDS011;15921;52.034;20.650;2024-01-27T02:49:59;23.23;;;3.00;;
28766;SDS011;15921;52.034;20.650;2024-01-27T02:52:25;18.67;;;3.35;;
28766;SDS011;15921;52.034;20.650;2024-01-27T02:54:51;19.40;;;3.15;;
28766;SDS011;15921;52.034;20.650;2024-01-27T02:57:16;21.45;;;3.97;;
28766;SDS011;15921;52.034;20.650;2024-01-27T02:59:46;29.65;;;3.70;;
28766;SDS011;15921;52.034;20.650;2024-01-27T03:02:12;23.27;;;4.55;;
28766;SDS011;15921;52.034;20.650;2024-01-27T03:04:37;24.08;;;3.33;;
28766;SDS011;15921;52.034;20.650;2024-01-27T03:07:03;22.17;;;3.72;;
28766;SDS011;15921;52.034;20.650;2024-01-27T03:09:30;13.60;;;2.97;;
28766;SDS011;15921;52.034;20.650;2024-01-27T03:11:56;13.23;;;3.35;;
28766;SDS011;15921;52.034;20.650;2024-01-27T03:14:22;22.75;;;3.75;;
28766;SDS011;15921;52.034;20.650;2024-01-27T03:16:48;15.80;;;4.00;;
28766;SDS011;15921;52.034;20.650;2024-01-27T03:19:14;21.98;;;3.72;;
28766;SDS011;15921;52.034;20.650;2024-01-27T03:21:39;18.65;;;3.47;;
28766;SDS011;15921;52.034;20.650;2024-01-27T03:24:05;18.00;;;3.13;;
28766;SDS011;15921;52.034;20.650;2024-01-27T03:26:31;18.80;;;3.55;;
28766;SDS011;15921;52.034;20.650;2024-01-27T03:28:56;14.82;;;3.17;;
28766;SDS011;15921;52.034;20.650;2024-01-27T03:31:23;13.85;;;2.60;;
28766;SDS011;15921;52.034;20.650;2024-01-27T03:33:48;16.40;;;3.55;;
28766;SDS011;15921;52.034;20.650;2024-01-27T03:36:15;18.42;;;3.42;;
28766;SDS011;15921;52.034;20.650;2024-01-27T03:38:40;21.23;;;3.60;;
28766;SDS011;15921;52.034;20.650;2024-01-27T03:41:06;16.35;;;3.10;;
28766;SDS011;15921;52.034;20.650;2024-01-27T03:43:35;21.02;;;5.28;;
28766;SDS011;15921;52.034;20.650;2024-01-27T03:46:01;31.08;;;4.22;;
28766;SDS011;15921;52.034;20.650;2024-01-27T03:48:28;15.82;;;3.17;;
28766;SDS011;15921;52.034;20.650;2024-01-27T03:50:54;15.98;;;3.75;;
28766;SDS011;15921;52.034;20.650;2024-01-27T03:53:19;25.33;;;3.38;;
28766;SDS011;15921;52.034;20.650;2024-01-27T03:55:45;19.75;;;3.22;;
28766;SDS011;15921;52.034;20.650;2024-01-27T03:58:10;16.70;;;2.60;;
28766;SDS011;15921;52.034;20.650;2024-01-27T04:00:36;19.55;;;3.50;;
28766;SDS011;15921;52.034;20.650;2024-01-27T04:03:02;20.85;;;3.30;;
28766;SDS011;15921;52.034;20.650;2024-01-27T04:05:30;20.85;;;3.55;;
28766;SDS011;15921;52.034;20.650;2024-01-27T04:07:56;19.88;;;3.00;;
28766;SDS011;15921;52.034;20.650;2024-01-27T04:10:22;21.40;;;3.80;;
28766;SDS011;15921;52.034;20.650;2024-01-27T04:12:48;18.65;;;3.92;;
28766;SDS011;15921;52.034;20.650;2024-01-27T04:15:14;21.98;;;3.72;;
28766;SDS011;15921;52.034;20.650;2024-01-27T04:17:40;16.85;;;2.92;;
28766;SDS011;15921;52.034;20.650;2024-01-27T04:20:07;20.95;;;4.53;;
28766;SDS011;15921;52.034;20.650;2024-01-27T04:22:34;16.83;;;2.92;;
28766;SDS011;15921;52.034;20.650;2024-01-27T04:25:00;26.30;;;3.50;;
28766;SDS011;15921;52.034;20.650;2024-01-27T04:27:29;18.13;;;3.63;;
28766;SDS011;15921;52.034;20.650;2024-01-27T04:29:55;21.85;;;3.83;;
28766;SDS011;15921;52.034;20.650;2024-01-27T04:32:22;22.40;;;4.20;;
28766;SDS011;15921;52.034;20.650;2024-01-27T04:34:47;19.17;;;3.95;;
28766;SDS011;15921;52.034;20.650;2024-01-27T04:37:13;12.57;;;3.10;;
28766;SDS011;15921;52.034;20.650;2024-01-27T04:39:39;24.75;;;3.05;;
28766;SDS011;15921;52.034;20.650;2024-01-27T04:42:05;21.90;;;3.45;;
28766;SDS011;15921;52.034;20.650;2024-01-27T04:44:31;25.42;;;3.72;;
28766;SDS011;15921;52.034;20.650;2024-01-27T04:46:57;16.88;;;2.80;;
28766;SDS011;15921;52.034;20.650;2024-01-27T04:49:23;21.73;;;3.25;;
28766;SDS011;15921;52.034;20.650;2024-01-27T04:51:49;19.95;;;3.90;;
28766;SDS011;15921;52.034;20.650;2024-01-27T04:54:14;19.17;;;4.28;;
28766;SDS011;15921;52.034;20.650;2024-01-27T04:56:41;16.33;;;3.33;;
28766;SDS011;15921;52.034;20.650;2024-01-27T04:59:06;24.25;;;3.90;;
28766;SDS011;15921;52.034;20.650;2024-01-27T05:01:32;20.83;;;3.33;;
28766;SDS011;15921;52.034;20.650;2024-01-27T05:03:58;18.35;;;3.30;;
28766;SDS011;15921;52.034;20.650;2024-01-27T05:06:24;19.73;;;3.63;;
28766;SDS011;15921;52.034;20.650;2024-01-27T05:08:50;20.08;;;2.95;;
28766;SDS011;15921;52.034;20.650;2024-01-27T05:11:16;17.33;;;4.07;;
28766;SDS011;15921;52.034;20.650;2024-01-27T05:13:56;15.50;;;3.88;;
28766;SDS011;15921;52.034;20.650;2024-01-27T05:16:21;15.88;;;3.63;;
28766;SDS011;15921;52.034;20.650;2024-01-27T05:18:47;21.33;;;3.15;;
28766;SDS011;15921;52.034;20.650;2024-01-27T05:21:13;17.23;;;3.42;;
28766;SDS011;15921;52.034;20.650;2024-01-27T05:23:39;16.13;;;2.83;;
28766;SDS011;15921;52.034;20.650;2024-01-27T05:26:05;14.85;;;2.47;;
28766;SDS011;15921;52.034;20.650;2024-01-27T05:28:31;16.23;;;3.70;;
28766;SDS011;15921;52.034;20.650;2024-01-27T05:30:57;17.42;;;3.30;;
28766;SDS011;15921;52.034;20.650;2024-01-27T05:33:23;16.33;;;3.35;;
28766;SDS011;15921;52.034;20.650;2024-01-27T05:35:48;18.88;;;4.57;;
28766;SDS011;15921;52.034;20.650;2024-01-27T05:38:15;20.05;;;3.55;;
28766;SDS011;15921;52.034;20.650;2024-01-27T05:40:41;22.95;;;3.13;;
28766;SDS011;15921;52.034;20.650;2024-01-27T05:43:07;18.65;;;3.35;;
28766;SDS011;15921;52.034;20.650;2024-01-27T05:45:33;15.52;;;3.10;;
28766;SDS011;15921;52.034;20.650;2024-01-27T05:47:58;18.25;;;2.58;;
28766;SDS011;15921;52.034;20.650;2024-01-27T05:50:24;15.07;;;2.92;;
28766;SDS011;15921;52.034;20.650;2024-01-27T05:52:51;23.60;;;3.65;;
28766;SDS011;15921;52.034;20.650;2024-01-27T05:55:16;17.70;;;3.78;;
28766;SDS011;15921;52.034;20.650;2024-01-27T05:57:42;16.55;;;3.70;;
28766;SDS011;15921;52.034;20.650;2024-01-27T06:00:08;21.08;;;3.60;;
28766;SDS011;15921;52.034;20.650;2024-01-27T06:02:35;19.63;;;4.03;;
28766;SDS011;15921;52.034;20.650;2024-01-27T06:05:01;22.92;;;3.42;;
28766;SDS011;15921;52.034;20.650;2024-01-27T06:07:27;22.67;;;3.63;;
28766;SDS011;15921;52.034;20.650;2024-01-27T06:09:53;37.58;;;5.18;;
28766;SDS011;15921;52.034;20.650;2024-01-27T06:12:19;24.27;;;3.80;;
28766;SDS011;15921;52.034;20.650;2024-01-27T06:14:45;19.55;;;3.78;;
28766;SDS011;15921;52.034;20.650;2024-01-27T06:17:11;18.73;;;3.33;;
28766;SDS011;15921;52.034;20.650;2024-01-27T06:19:39;19.02;;;4.75;;
28766;SDS011;15921;52.034;20.650;2024-01-27T06:22:05;28.73;;;3.63;;
28766;SDS011;15921;52.034;20.650;2024-01-27T06:24:31;13.45;;;3.50;;
28766;SDS011;15921;52.034;20.650;2024-01-27T06:26:57;26.67;;;3.72;;
28766;SDS011;15921;52.034;20.650;2024-01-27T06:29:22;21.27;;;5.00;;
28766;SDS011;15921;52.034;20.650;2024-01-27T06:31:48;25.65;;;4.15;;
28766;SDS011;15921;52.034;20.650;2024-01-27T06:34:14;31.42;;;4.15;;
28766;SDS011;15921;52.034;20.650;2024-01-27T06:36:39;24.48;;;3.72;;
28766;SDS011;15921;52.034;20.650;2024-01-27T06:39:05;29.13;;;4.15;;
28766;SDS011;15921;52.034;20.650;2024-01-27T06:41:33;18.55;;;3.90;;
28766;SDS011;15921;52.034;20.650;2024-01-27T06:43:58;18.88;;;3.88;;
28766;SDS011;15921;52.034;20.650;2024-01-27T06:46:25;24.50;;;4.35;;
28766;SDS011;15921;52.034;20.650;2024-01-27T06:48:51;21.23;;;4.13;;
28766;SDS011;15921;52.034;20.650;2024-01-27T06:51:17;20.45;;;4.22;;
28766;SDS011;15921;52.034;20.650;2024-01-27T06:53:42;27.25;;;4.68;;
28766;SDS011;15921;52.034;20.650;2024-01-27T06:56:08;24.20;;;3.70;;
28766;SDS011;15921;52.034;20.650;2024-01-27T06:58:34;26.23;;;3.92;;
28766;SDS011;15921;52.034;20.650;2024-01-27T07:01:00;38.95;;;4.88;;
28766;SDS011;15921;52.034;20.650;2024-01-27T07:03:25;22.75;;;3.88;;
28766;SDS011;15921;52.034;20.650;2024-01-27T07:05:51;29.73;;;4.40;;
28766;SDS011;15921;52.034;20.650;2024-01-27T07:08:17;24.30;;;4.32;;
28766;SDS011;15921;52.034;20.650;2024-01-27T07:10:43;26.95;;;4.32;;
28766;SDS011;15921;52.034;20.650;2024-01-27T07:13:08;27.55;;;4.57;;
28766;SDS011;15921;52.034;20.650;2024-01-27T07:15:34;20.58;;;4.60;;
28766;SDS011;15921;52.034;20.650;2024-01-27T07:18:02;29.45;;;5.88;;
28766;SDS011;15921;52.034;20.650;2024-01-27T07:20:28;25.98;;;4.28;;
28766;SDS011;15921;52.034;20.650;2024-01-27T07:22:54;24.10;;;4.00;;
28766;SDS011;15921;52.034;20.650;2024-01-27T07:25:19;21.40;;;4.50;;
28766;SDS011;15921;52.034;20.650;2024-01-27T07:27:45;21.17;;;4.75;;
28766;SDS011;15921;52.034;20.650;2024-01-27T07:30:11;23.90;;;4.65;;
28766;SDS011;15921;52.034;20.650;2024-01-27T07:32:37;20.85;;;4.35;;
28766;SDS011;15921;52.034;20.650;2024-01-27T07:35:03;24.10;;;4.82;;
28766;SDS011;15921;52.034;20.650;2024-01-27T07:37:30;24.80;;;4.50;;
28766;SDS011;15921;52.034;20.650;2024-01-27T07:39:56;22.42;;;3.75;;
28766;SDS011;15921;52.034;20.650;2024-01-27T07:42:22;21.38;;;4.47;;
28766;SDS011;15921;52.034;20.650;2024-01-27T07:44:47;22.50;;;3.97;;
28766;SDS011;15921;52.034;20.650;2024-01-27T07:47:14;19.77;;;5.00;;
28766;SDS011;15921;52.034;20.650;2024-01-27T07:49:40;20.90;;;4.63;;
28766;SDS011;15921;52.034;20.650;2024-01-27T07:52:06;26.30;;;4.45;;
28766;SDS011;15921;52.034;20.650;2024-01-27T07:54:31;22.10;;;4.63;;
28766;SDS011;15921;52.034;20.650;2024-01-27T07:56:58;23.23;;;5.15;;
28766;SDS011;15921;52.034;20.650;2024-01-27T07:59:24;15.80;;;4.25;;
28766;SDS011;15921;52.034;20.650;2024-01-27T08:01:50;15.52;;;4.60;;
28766;SDS011;15921;52.034;20.650;2024-01-27T08:04:19;19.10;;;4.53;;
28766;SDS011;15921;52.034;20.650;2024-01-27T08:06:49;17.00;;;4.28;;
28766;SDS011;15921;52.034;20.650;2024-01-27T08:09:16;19.63;;;5.28;;
28766;SDS011;15921;52.034;20.650;2024-01-27T08:11:42;25.52;;;4.18;;
28766;SDS011;15921;52.034;20.650;2024-01-27T08:14:07;19.88;;;4.55;;
28766;SDS011;15921;52.034;20.650;2024-01-27T08:16:34;17.77;;;4.30;;
28766;SDS011;15921;52.034;20.650;2024-01-27T08:19:00;22.05;;;4.53;;
28766;SDS011;15921;52.034;20.650;2024-01-27T08:21:25;24.00;;;4.78;;
28766;SDS011;15921;52.034;20.650;2024-01-27T08:23:51;24.10;;;4.85;;
28766;SDS011;15921;52.034;20.650;2024-01-27T08:26:17;21.88;;;4.15;;
28766;SDS011;15921;52.034;20.650;2024-01-27T08:28:45;20.67;;;4.78;;
28766;SDS011;15921;52.034;20.650;2024-01-27T08:31:12;19.80;;;4.50;;
28766;SDS011;15921;52.034;20.650;2024-01-27T08:33:37;24.13;;;4.28;;
28766;SDS011;15921;52.034;20.650;2024-01-27T08:36:03;14.77;;;4.00;;
28766;SDS011;15921;52.034;20.650;2024-01-27T08:38:29;22.27;;;5.05;;
28766;SDS011;15921;52.034;20.650;2024-01-27T08:40:55;21.52;;;4.30;;
28766;SDS011;15921;52.034;20.650;2024-01-27T08:43:20;18.58;;;4.05;;
28766;SDS011;15921;52.034;20.650;2024-01-27T08:45:46;15.50;;;3.88;;
28766;SDS011;15921;52.034;20.650;2024-01-27T08:48:11;14.68;;;4.35;;
28766;SDS011;15921;52.034;20.650;2024-01-27T08:50:37;18.83;;;4.28;;
28766;SDS011;15921;52.034;20.650;2024-01-27T08:53:03;17.38;;;4.32;;
28766;SDS011;15921;52.034;20.650;2024-01-27T08:55:29;15.95;;;4.93;;
28766;SDS011;15921;52.034;20.650;2024-01-27T08:57:55;22.30;;;4.85;;
28766;SDS011;15921;52.034;20.650;2024-01-27T09:00:22;22.27;;;5.45;;
28766;SDS011;15921;52.034;20.650;2024-01-27T09:02:47;21.83;;;5.50;;
28766;SDS011;15921;52.034;20.650;2024-01-27T09:05:13;21.38;;;4.95;;
28766;SDS011;15921;52.034;20.650;2024-01-27T09:07:39;24.67;;;5.45;;
28766;SDS011;15921;52.034;20.650;2024-01-27T09:10:05;21.33;;;5.40;;
28766;SDS011;15921;52.034;20.650;2024-01-27T09:12:32;13.52;;;4.97;;
28766;SDS011;15921;52.034;20.650;2024-01-27T09:14:58;23.27;;;6.10;;
28766;SDS011;15921;52.034;20.650;2024-01-27T09:17:23;16.80;;;5.50;;
28766;SDS011;15921;52.034;20.650;2024-01-27T09:19:49;15.48;;;5.53;;
28766;SDS011;15921;52.034;20.650;2024-01-27T09:22:17;18.00;;;6.15;;
28766;SDS011;15921;52.034;20.650;2024-01-27T09:24:42;13.88;;;4.68;;
28766;SDS011;15921;52.034;20.650;2024-01-27T09:27:08;13.05;;;5.03;;
28766;SDS011;15921;52.034;20.650;2024-01-27T09:29:34;17.27;;;5.28;;
28766;SDS011;15921;52.034;20.650;2024-01-27T09:31:59;18.45;;;6.03;;
28766;SDS011;15921;52.034;20.650;2024-01-27T09:34:25;23.25;;;7.88;;
28766;SDS011;15921;52.034;20.650;2024-01-27T09:36:52;15.65;;;6.50;;
28766;SDS011;15921;52.034;20.650;2024-01-27T09:39:18;17.42;;;6.90;;
28766;SDS011;15921;52.034;20.650;2024-01-27T09:41:44;18.38;;;5.72;;
28766;SDS011;15921;52.034;20.650;2024-01-27T09:44:11;24.85;;;8.98;;
28766;SDS011;15921;52.034;20.650;2024-01-27T09:46:38;19.73;;;8.55;;
28766;SDS011;15921;52.034;20.650;2024-01-27T09:49:04;18.33;;;8.18;;
28766;SDS011;15921;52.034;20.650;2024-01-27T09:51:30;25.40;;;7.35;;
28766;SDS011;15921;52.034;20.650;2024-01-27T09:53:56;22.67;;;8.65;;
28766;SDS011;15921;52.034;20.650;2024-01-27T09:56:22;22.27;;;8.00;;
28766;SDS011;15921;52.034;20.650;2024-01-27T09:58:47;15.35;;;7.28;;
28766;SDS011;15921;52.034;20.650;2024-01-27T10:01:18;13.80;;;6.93;;
28766;SDS011;15921;52.034;20.650;2024-01-27T10:03:46;16.85;;;6.20;;
28766;SDS011;15921;52.034;20.650;2024-01-27T10:06:12;14.40;;;6.28;;
28766;SDS011;15921;52.034;20.650;2024-01-27T10:08:40;21.65;;;5.38;;
28766;SDS011;15921;52.034;20.650;2024-01-27T10:11:08;18.38;;;6.10;;
28766;SDS011;15921;52.034;20.650;2024-01-27T10:13:35;11.75;;;4.75;;
28766;SDS011;15921;52.034;20.650;2024-01-27T10:16:07;15.73;;;4.75;;
28766;SDS011;15921;52.034;20.650;2024-01-27T10:18:34;10.38;;;4.30;;
28766;SDS011;15921;52.034;20.650;2024-01-27T10:21:00;10.65;;;4.45;;
28766;SDS011;15921;52.034;20.650;2024-01-27T10:23:40;12.73;;;4.13;;
28766;SDS011;15921;52.034;20.650;2024-01-27T10:26:08;10.60;;;4.35;;
28766;SDS011;15921;52.034;20.650;2024-01-27T10:28:34;7.95;;;4.40;;
28766;SDS011;15921;52.034;20.650;2024-01-27T10:31:13;10.13;;;4.82;;
28766;SDS011;15921;52.034;20.650;2024-01-27T10:33:39;8.32;;;4.35;;
28766;SDS011;15921;52.034;20.650;2024-01-27T10:36:05;8.02;;;3.97;;
28766;SDS011;15921;52.034;20.650;2024-01-27T10:38:35;10.63;;;4.15;;
28766;SDS011;15921;52.034;20.650;2024-01-27T10:41:01;13.93;;;4.35;;
28766;SDS011;15921;52.034;20.650;2024-01-27T10:43:32;10.60;;;4.50;;
28766;SDS011;15921;52.034;20.650;2024-01-27T10:46:00;9.73;;;4.80;;
28766;SDS011;15921;52.034;20.650;2024-01-27T10:48:28;15.38;;;4.57;;
28766;SDS011;15921;52.034;20.650;2024-01-27T10:50:55;13.55;;;5.05;;
28766;SDS011;15921;52.034;20.650;2024-01-27T10:53:23;12.32;;;6.03;;
28766;SDS011;15921;52.034;20.650;2024-01-27T10:55:53;9.55;;;4.53;;
28766;SDS011;15921;52.034;20.650;2024-01-27T11:00:48;8.60;;;3.88;;
28766;SDS011;15921;52.034;20.650;2024-01-27T11:03:15;8.02;;;3.70;;
28766;SDS011;15921;52.034;20.650;2024-01-27T11:05:43;9.07;;;3.05;;
28766;SDS011;15921;52.034;20.650;2024-01-27T11:08:12;9.50;;;2.95;;
28766;SDS011;15921;52.034;20.650;2024-01-27T11:10:39;7.43;;;3.70;;
28766;SDS011;15921;52.034;20.650;2024-01-27T11:13:05;6.63;;;4.03;;
28766;SDS011;15921;52.034;20.650;2024-01-27T11:15:34;5.60;;;3.17;;
28766;SDS011;15921;52.034;20.650;2024-01-27T11:17:59;8.38;;;4.20;;
28766;SDS011;15921;52.034;20.650;2024-01-27T11:20:27;8.57;;;3.92;;
28766;SDS011;15921;52.034;20.650;2024-01-27T11:22:53;7.50;;;4.05;;
28766;SDS011;15921;52.034;20.650;2024-01-27T11:25:19;4.53;;;2.83;;
28766;SDS011;15921;52.034;20.650;2024-01-27T11:27:45;4.47;;;3.15;;
28766;SDS011;15921;52.034;20.650;2024-01-27T11:30:27;8.73;;;3.07;;
28766;SDS011;15921;52.034;20.650;2024-01-27T11:32:54;6.82;;;3.55;;
28766;SDS011;15921;52.034;20.650;2024-01-27T11:35:21;6.47;;;3.42;;
28766;SDS011;15921;52.034;20.650;2024-01-27T11:37:47;5.38;;;2.95;;
28766;SDS011;15921;52.034;20.650;2024-01-27T11:40:13;4.80;;;2.60;;
28766;SDS011;15921;52.034;20.650;2024-01-27T11:42:40;6.00;;;3.25;;
28766;SDS011;15921;52.034;20.650;2024-01-27T11:45:07;5.35;;;3.03;;
28766;SDS011;15921;52.034;20.650;2024-01-27T11:47:34;5.95;;;2.88;;
28766;SDS011;15921;52.034;20.650;2024-01-27T11:50:00;8.90;;;3.03;;
28766;SDS011;15921;52.034;20.650;2024-01-27T11:52:27;5.00;;;3.17;;
28766;SDS011;15921;52.034;20.650;2024-01-27T11:54:56;5.32;;;2.90;;
28766;SDS011;15921;52.034;20.650;2024-01-27T11:57:22;5.88;;;3.45;;
28766;SDS011;15921;52.034;20.650;2024-01-27T11:59:48;5.90;;;3.20;;
28766;SDS011;15921;52.034;20.650;2024-01-27T12:02:15;5.38;;;2.95;;
28766;SDS011;15921;52.034;20.650;2024-01-27T12:04:42;9.60;;;3.42;;
28766;SDS011;15921;52.034;20.650;2024-01-27T12:07:08;6.35;;;3.50;;
28766;SDS011;15921;52.034;20.650;2024-01-27T12:09:35;7.85;;;3.58;;
28766;SDS011;15921;52.034;20.650;2024-01-27T12:12:01;4.80;;;3.00;;
28766;SDS011;15921;52.034;20.650;2024-01-27T12:14:40;9.43;;;3.60;;
28766;SDS011;15921;52.034;20.650;2024-01-27T12:17:09;9.38;;;3.08;;
28766;SDS011;15921;52.034;20.650;2024-01-27T12:19:36;6.70;;;3.78;;
28766;SDS011;15921;52.034;20.650;2024-01-27T12:22:02;13.60;;;4.20;;
28766;SDS011;15921;52.034;20.650;2024-01-27T12:24:28;7.20;;;3.50;;
28766;SDS011;15921;52.034;20.650;2024-01-27T12:26:57;6.80;;;3.45;;
28766;SDS011;15921;52.034;20.650;2024-01-27T12:29:24;7.18;;;3.33;;
28766;SDS011;15921;52.034;20.650;2024-01-27T12:31:50;5.88;;;4.03;;
28766;SDS011;15921;52.034;20.650;2024-01-27T12:34:17;9.63;;;4.85;;
28766;SDS011;15921;52.034;20.650;2024-01-27T12:36:44;11.05;;;4.28;;
28766;SDS011;15921;52.034;20.650;2024-01-27T12:39:10;8.73;;;4.30;;
28766;SDS011;15921;52.034;20.650;2024-01-27T12:41:36;8.43;;;4.60;;
28766;SDS011;15921;52.034;20.650;2024-01-27T12:44:02;6.35;;;3.70;;
28766;SDS011;15921;52.034;20.650;2024-01-27T12:46:28;10.00;;;5.28;;
28766;SDS011;15921;52.034;20.650;2024-01-27T12:48:54;11.40;;;5.70;;
28766;SDS011;15921;52.034;20.650;2024-01-27T12:51:20;7.47;;;4.05;;
28766;SDS011;15921;52.034;20.650;2024-01-27T12:53:46;7.30;;;3.67;;
28766;SDS011;15921;52.034;20.650;2024-01-27T12:56:12;7.00;;;4.05;;
28766;SDS011;15921;52.034;20.650;2024-01-27T12:58:39;7.00;;;3.63;;
28766;SDS011;15921;52.034;20.650;2024-01-27T13:01:06;7.47;;;3.83;;
28766;SDS011;15921;52.034;20.650;2024-01-27T13:03:33;7.95;;;3.95;;
28766;SDS011;15921;52.034;20.650;2024-01-27T13:06:00;8.88;;;4.15;;
28766;SDS011;15921;52.034;20.650;2024-01-27T13:08:26;7.43;;;3.55;;
28766;SDS011;15921;52.034;20.650;2024-01-27T13:10:52;8.32;;;4.18;;
28766;SDS011;15921;52.034;20.650;2024-01-27T13:13:18;8.35;;;4.43;;
28766;SDS011;15921;52.034;20.650;2024-01-27T13:15:44;8.48;;;4.00;;
28766;SDS011;15921;52.034;20.650;2024-01-27T13:18:11;7.60;;;3.90;;
28766;SDS011;15921;52.034;20.650;2024-01-27T13:20:37;5.93;;;3.65;;
28766;SDS011;15921;52.034;20.650;2024-01-27T13:23:02;8.05;;;3.95;;
28766;SDS011;15921;52.034;20.650;2024-01-27T13:25:28;8.00;;;4.10;;
28766;SDS011;15921;52.034;20.650;2024-01-27T13:27:54;6.07;;;3.40;;
28766;SDS011;15921;52.034;20.650;2024-01-27T13:30:21;9.43;;;3.97;;
28766;SDS011;15921;52.034;20.650;2024-01-27T13:32:46;7.57;;;3.88;;
28766;SDS011;15921;52.034;20.650;2024-01-27T13:35:12;7.00;;;3.63;;
28766;SDS011;15921;52.034;20.650;2024-01-27T13:37:38;6.00;;;3.63;;
28766;SDS011;15921;52.034;20.650;2024-01-27T13:40:05;6.93;;;3.72;;
28766;SDS011;15921;52.034;20.650;2024-01-27T13:42:35;8.93;;;4.00;;
28766;SDS011;15921;52.034;20.650;2024-01-27T13:45:01;8.00;;;4.30;;
28766;SDS011;15921;52.034;20.650;2024-01-27T13:47:27;9.18;;;3.92;;
28766;SDS011;15921;52.034;20.650;2024-01-27T13:49:53;7.72;;;4.30;;
28766;SDS011;15921;52.034;20.650;2024-01-27T13:52:19;8.50;;;3.97;;
28766;SDS011;15921;52.034;20.650;2024-01-27T13:54:45;6.38;;;3.42;;
28766;SDS011;15921;52.034;20.650;2024-01-27T13:57:10;11.02;;;4.22;;
28766;SDS011;15921;52.034;20.650;2024-01-27T13:59:36;7.28;;;4.30;;
28766;SDS011;15921;52.034;20.650;2024-01-27T14:02:03;7.15;;;4.20;;
28766;SDS011;15921;52.034;20.650;2024-01-27T14:04:29;7.75;;;4.18;;
28766;SDS011;15921;52.034;20.650;2024-01-27T14:06:54;11.18;;;4.18;;
28766;SDS011;15921;52.034;20.650;2024-01-27T14:09:27;6.95;;;3.90;;
28766;SDS011;15921;52.034;20.650;2024-01-27T14:11:53;7.90;;;4.38;;
28766;SDS011;15921;52.034;20.650;2024-01-27T14:14:19;6.28;;;3.55;;
28766;SDS011;15921;52.034;20.650;2024-01-27T14:16:46;8.60;;;4.50;;
28766;SDS011;15921;52.034;20.650;2024-01-27T14:19:12;7.63;;;3.80;;
28766;SDS011;15921;52.034;20.650;2024-01-27T14:21:38;6.57;;;3.70;;
28766;SDS011;15921;52.034;20.650;2024-01-27T14:24:05;7.55;;;3.90;;